Paynesville, Missouri
Current Conditions -  °F | °C
As of 3:15 PM on Monday 24 Nov 2014 (Local Time) from KPPQ Reporting Station
Overcast Overcast  
Wind Chill: 27°   Ceiling: 3400
Heat Index: 36°   Visibility: 10mi
Dew Point: 26°   Wind: 14mph
Humidity: 69%   Direction: 260°W
Pressure: 29.77"   Gusts: 22mph
Location:  39.3277°N, 90.9481°W
Report Text: KPPQ 242115Z AUTO 26012G19KT 10SM OVC034 02/M03 A2977 RMK AO2 T00201031
Loading
Personal Weather Stations






























Interactive Weather Map New forecast layout! Learn more

10-Day Weather Forecast

Advertisements
Track Severe Weather on mobile